createdAt,value
2019-02-22T00:01:43.446Z,10.38
2019-02-22T00:04:14.155Z,10.50
2019-02-22T00:06:45.908Z,13.95
2019-02-22T00:09:20.274Z,9.98
2019-02-22T00:11:53.658Z,9.80
2019-02-22T00:14:25.851Z,10.45
2019-02-22T00:16:57.234Z,8.78
2019-02-22T00:19:28.213Z,8.63
2019-02-22T00:21:59.736Z,9.40
2019-02-22T00:24:33.212Z,9.80
2019-02-22T00:27:06.629Z,12.18
2019-02-22T00:29:37.766Z,9.48
2019-02-22T00:32:08.747Z,11.68
2019-02-22T00:34:43.526Z,9.78
2019-02-22T00:37:17.588Z,11.03
2019-02-22T00:39:48.168Z,18.75
2019-02-22T00:42:20.610Z,10.55
2019-02-22T00:44:53.403Z,12.82
2019-02-22T00:47:28.184Z,9.88
2019-02-22T00:50:00.309Z,14.30
2019-02-22T00:52:33.192Z,10.45
2019-02-22T00:55:03.385Z,12.30
2019-02-22T00:57:38.081Z,11.73
2019-02-22T01:00:09.842Z,11.00
2019-02-22T01:02:40.035Z,12.30
2019-02-22T01:05:10.951Z,10.20
2019-02-22T01:07:44.387Z,12.75
2019-02-22T01:10:14.814Z,9.63
2019-02-22T01:12:44.943Z,12.13
2019-02-22T01:15:15.112Z,13.95
2019-02-22T01:17:45.330Z,18.02
2019-02-22T01:20:15.490Z,14.43
2019-02-22T01:22:45.655Z,14.07
2019-02-22T01:25:16.821Z,11.83
2019-02-22T01:27:49.958Z,11.73
2019-02-22T01:30:20.393Z,14.95
2019-02-22T01:32:51.602Z,12.43
2019-02-22T01:35:22.077Z,15.05
2019-02-22T01:37:53.107Z,11.55
2019-02-22T01:40:25.563Z,12.25
2019-02-22T01:42:57.455Z,12.90
2019-02-22T01:45:27.947Z,17.52
2019-02-22T01:47:58.090Z,13.83
2019-02-22T01:50:29.468Z,12.85
2019-02-22T01:53:01.887Z,15.95
2019-02-22T01:55:34.298Z,14.40
2019-02-22T01:58:04.791Z,14.45
2019-02-22T02:00:35.283Z,17.15
2019-02-22T02:03:05.437Z,17.00
2019-02-22T02:05:38.334Z,19.98
2019-02-22T02:08:10.263Z,16.45
2019-02-22T02:10:54.145Z,14.65
2019-02-22T02:13:19.430Z,13.32
2019-02-22T02:15:52.201Z,12.78
2019-02-22T02:18:24.331Z,12.30
2019-02-22T02:20:56.483Z,12.40
2019-02-22T02:23:31.182Z,16.45
2019-02-22T02:26:03.985Z,12.90
2019-02-22T02:28:35.646Z,16.05
2019-02-22T02:31:06.099Z,14.10
2019-02-22T02:33:37.717Z,13.95
2019-02-22T02:36:07.951Z,15.05
2019-02-22T02:38:38.210Z,16.42
2019-02-22T02:41:11.884Z,20.37
2019-02-22T02:43:43.255Z,24.30
2019-02-22T02:46:15.491Z,19.42
2019-02-22T02:48:46.363Z,19.20
2019-02-22T02:51:17.916Z,20.90
2019-02-22T02:53:49.841Z,15.93
2019-02-22T02:56:21.972Z,20.65
2019-02-22T02:58:52.195Z,21.73
2019-02-22T03:01:22.886Z,28.30
2019-02-22T03:03:53.152Z,22.02
2019-02-22T03:06:34.298Z,23.73
2019-02-22T03:09:05.958Z,25.70
2019-02-22T03:11:36.078Z,31.05
2019-02-22T03:14:09.615Z,24.55
2019-02-22T03:16:41.460Z,21.02
2019-02-22T03:19:13.493Z,26.65
2019-02-22T03:21:44.810Z,22.85
2019-02-22T03:24:16.373Z,21.82
2019-02-22T03:26:47.249Z,18.57
2019-02-22T03:29:17.485Z,22.58
2019-02-22T03:31:47.693Z,20.35
2019-02-22T03:34:18.654Z,25.57
2019-02-22T03:36:48.945Z,16.80
2019-02-22T03:39:26.445Z,19.52
2019-02-22T03:41:58.863Z,17.48
2019-02-22T03:44:32.438Z,17.52
2019-02-22T03:47:04.398Z,23.18
2019-02-22T03:49:36.072Z,22.05
2019-02-22T03:52:40.486Z,20.20
2019-02-22T03:55:11.093Z,18.07
2019-02-22T03:57:42.854Z,25.57
2019-02-22T04:00:12.986Z,20.85
2019-02-22T04:02:50.182Z,24.67
2019-02-22T04:05:22.068Z,23.92
2019-02-22T04:07:52.214Z,21.33
2019-02-22T04:10:24.626Z,20.32
2019-02-22T04:12:57.050Z,29.82
2019-02-22T04:15:27.515Z,19.35
2019-02-22T04:17:59.200Z,27.58
2019-02-22T04:20:31.873Z,21.30
2019-02-22T04:23:02.605Z,28.62
2019-02-22T04:25:33.171Z,19.87
2019-02-22T04:28:06.334Z,26.00
2019-02-22T04:30:38.109Z,23.42
2019-02-22T04:33:10.423Z,26.05
2019-02-22T04:35:42.178Z,27.60
2019-02-22T04:38:13.741Z,22.70
2019-02-22T04:40:43.908Z,27.85
2019-02-22T04:43:14.413Z,26.05
2019-02-22T04:45:47.797Z,29.65
2019-02-22T04:48:20.013Z,26.75
2019-02-22T04:50:52.278Z,27.13
2019-02-22T04:53:22.414Z,26.25
2019-02-22T04:55:52.558Z,24.67
2019-02-22T04:58:24.435Z,26.80
2019-02-22T05:00:54.595Z,33.70
2019-02-22T05:03:25.455Z,28.77
2019-02-22T05:05:55.633Z,27.75
2019-02-22T05:08:27.699Z,29.10
2019-02-22T05:10:59.315Z,31.65
2019-02-22T05:13:29.522Z,34.00
2019-02-22T05:16:02.050Z,33.88
2019-02-22T05:18:32.236Z,41.05
2019-02-22T05:21:02.399Z,36.68
2019-02-22T05:23:34.591Z,36.55
2019-02-22T05:26:04.785Z,42.43
2019-02-22T05:28:35.061Z,47.08
2019-02-22T05:31:05.274Z,43.92
2019-02-22T05:33:37.215Z,46.60
2019-02-22T05:36:09.544Z,42.20
2019-02-22T05:38:39.911Z,42.55
2019-02-22T05:41:10.030Z,42.67
2019-02-22T05:43:41.055Z,44.13
2019-02-22T05:46:11.510Z,47.62
2019-02-22T05:48:41.893Z,47.17
2019-02-22T05:51:12.057Z,44.27
2019-02-22T05:53:42.398Z,52.25
2019-02-22T05:56:13.809Z,44.58
2019-02-22T05:58:43.951Z,46.58
2019-02-22T06:01:14.079Z,47.00
2019-02-22T06:03:44.287Z,51.92
2019-02-22T06:06:15.588Z,54.13
2019-02-22T06:08:45.736Z,47.83
2019-02-22T06:11:15.875Z,58.52
2019-02-22T06:13:46.378Z,55.33
2019-02-22T06:16:18.941Z,51.37
2019-02-22T06:18:49.102Z,56.77
2019-02-22T06:21:19.309Z,53.17
2019-02-22T06:23:49.444Z,55.08
2019-02-22T06:26:19.623Z,58.05
2019-02-22T06:28:50.076Z,52.33
2019-02-22T06:31:20.620Z,52.98
2019-02-22T06:33:51.185Z,53.02
2019-02-22T06:36:22.200Z,55.50
2019-02-22T06:38:52.365Z,47.20
2019-02-22T06:41:22.591Z,48.52
2019-02-22T06:43:52.745Z,39.67
2019-02-22T06:46:25.136Z,47.50
2019-02-22T06:48:55.354Z,49.20
2019-02-22T06:51:25.541Z,52.40
2019-02-22T06:53:55.670Z,57.88
2019-02-22T06:56:25.836Z,58.92
2019-02-22T06:58:55.982Z,54.13
2019-02-22T07:01:26.140Z,56.63
2019-02-22T07:03:56.732Z,52.65
2019-02-22T07:06:26.896Z,53.17
2019-02-22T07:08:58.866Z,55.60
2019-02-22T07:11:56.995Z,52.27
2019-02-22T07:14:29.284Z,56.75
2019-02-22T07:17:03.525Z,52.20
2019-02-22T07:19:33.684Z,53.42
2019-02-22T07:22:04.904Z,55.85
2019-02-22T07:24:35.071Z,53.90
2019-02-22T07:27:05.192Z,56.37
2019-02-22T07:29:35.332Z,57.90
2019-02-22T07:32:08.115Z,56.50
2019-02-22T07:34:38.275Z,53.25
2019-02-22T07:37:08.509Z,60.35
2019-02-22T07:39:38.643Z,56.73
2019-02-22T07:42:08.772Z,66.28
2019-02-22T07:44:39.039Z,57.23
2019-02-22T07:47:09.210Z,56.28
2019-02-22T07:49:42.525Z,57.80
2019-02-22T07:52:12.639Z,55.25
2019-02-22T07:54:44.448Z,65.17
2019-02-22T07:57:14.598Z,61.45
2019-02-22T07:59:45.065Z,56.55
2019-02-22T08:02:17.001Z,54.60
2019-02-22T08:04:48.130Z,58.23
2019-02-22T08:07:18.354Z,56.35
2019-02-22T08:09:48.452Z,57.17
2019-02-22T08:12:18.624Z,52.85
2019-02-22T08:14:48.979Z,57.88
2019-02-22T08:17:20.591Z,57.93
2019-02-22T08:19:50.708Z,60.83
2019-02-22T08:22:21.408Z,57.03
2019-02-22T08:24:51.873Z,56.77
2019-02-22T08:27:21.981Z,61.42
2019-02-22T08:29:52.145Z,50.17
2019-02-22T08:32:23.831Z,58.08
2019-02-22T08:34:54.328Z,52.25
2019-02-22T08:37:24.544Z,56.45
2019-02-22T08:39:58.659Z,53.42
2019-02-22T08:42:26.508Z,55.70
2019-02-22T08:44:56.639Z,58.10
2019-02-22T08:47:28.056Z,54.00
2019-02-22T08:50:00.535Z,58.52
2019-02-22T08:52:30.707Z,56.35
2019-02-22T08:55:00.894Z,61.65
2019-02-22T08:57:31.166Z,51.53
2019-02-22T09:00:02.016Z,51.20
2019-02-22T09:02:32.169Z,49.60
2019-02-22T09:05:02.300Z,47.90
2019-02-22T09:07:32.479Z,45.50
2019-02-22T09:10:02.630Z,52.03
2019-02-22T09:12:36.763Z,49.25
2019-02-22T09:15:07.719Z,45.90
2019-02-22T09:17:37.907Z,52.03
2019-02-22T09:20:08.684Z,47.67
2019-02-22T09:22:38.889Z,41.48
2019-02-22T09:25:09.679Z,35.68
2019-02-22T09:27:39.830Z,40.88
2019-02-22T09:30:11.649Z,41.70
2019-02-22T09:32:42.020Z,41.00
2019-02-22T09:35:12.218Z,36.33
2019-02-22T09:37:42.461Z,33.48
2019-02-22T09:40:14.696Z,33.60
2019-02-22T09:42:44.531Z,27.75
2019-02-22T09:45:15.035Z,33.05
2019-02-22T09:47:45.187Z,33.23
2019-02-22T09:50:15.307Z,30.85
2019-02-22T09:52:45.785Z,27.80
2019-02-22T09:55:15.903Z,31.62
2019-02-22T09:57:46.087Z,30.30
2019-02-22T10:00:16.282Z,25.15
2019-02-22T10:02:46.494Z,32.93
2019-02-22T10:05:16.631Z,26.12
2019-02-22T10:07:47.044Z,24.60
2019-02-22T10:10:18.505Z,26.73
2019-02-22T10:12:49.998Z,23.15
2019-02-22T10:15:20.416Z,23.70
2019-02-22T10:17:50.643Z,23.50
2019-02-22T10:20:21.206Z,25.10
2019-02-22T10:22:51.372Z,23.92
2019-02-22T10:25:21.632Z,21.33
2019-02-22T10:27:51.753Z,26.75
2019-02-22T10:30:21.939Z,24.25
2019-02-22T10:32:52.100Z,24.35
2019-02-22T10:35:22.244Z,26.23
2019-02-22T10:37:52.693Z,23.42
2019-02-22T10:40:24.634Z,24.43
2019-02-22T10:42:54.815Z,23.77
2019-02-22T10:45:26.721Z,25.23
2019-02-22T10:47:57.778Z,23.95
2019-02-22T10:50:28.750Z,25.65
2019-02-22T10:53:02.394Z,21.45
2019-02-22T10:55:32.380Z,19.55
2019-02-22T10:58:03.600Z,20.68
2019-02-22T11:00:36.606Z,22.37
2019-02-22T11:03:06.811Z,19.60
2019-02-22T11:05:37.416Z,21.20
2019-02-22T11:08:08.123Z,18.62
2019-02-22T11:10:39.265Z,17.98
2019-02-22T11:13:09.524Z,22.60
2019-02-22T11:15:39.718Z,21.75
2019-02-22T11:18:10.793Z,19.20
2019-02-22T11:20:41.132Z,19.05
2019-02-22T11:23:12.401Z,18.32
2019-02-22T11:25:42.727Z,19.57
2019-02-22T11:28:12.964Z,22.17
2019-02-22T11:30:43.326Z,24.87
2019-02-22T11:33:15.641Z,23.30
2019-02-22T11:35:46.379Z,28.83
2019-02-22T11:38:16.725Z,27.52
2019-02-22T11:40:46.994Z,25.05
2019-02-22T11:43:17.316Z,23.60
2019-02-22T11:45:49.915Z,27.25
2019-02-22T11:48:19.526Z,25.27
2019-02-22T11:50:51.597Z,20.97
2019-02-22T11:53:21.971Z,28.42
2019-02-22T11:55:52.268Z,28.35
2019-02-22T11:58:22.542Z,26.55
2019-02-22T12:00:53.003Z,25.40
2019-02-22T12:03:30.684Z,29.05
2019-02-22T12:06:00.966Z,25.90
2019-02-22T12:08:31.281Z,24.75
2019-02-22T12:11:01.593Z,26.20
2019-02-22T12:13:32.432Z,20.70
2019-02-22T12:16:02.971Z,21.93
2019-02-22T12:18:33.273Z,17.77
2019-02-22T12:21:03.511Z,15.45
2019-02-22T12:23:33.834Z,17.32
2019-02-22T12:26:04.187Z,15.13
2019-02-22T12:28:34.424Z,15.15
2019-02-22T12:31:04.934Z,15.98
2019-02-22T12:33:36.247Z,16.40
2019-02-22T12:36:06.516Z,18.92
2019-02-22T12:38:36.804Z,17.07
2019-02-22T12:41:07.151Z,16.12
2019-02-22T12:43:37.350Z,17.42
2019-02-22T12:46:07.591Z,18.85
2019-02-22T12:48:37.773Z,16.25
2019-02-22T12:51:07.938Z,17.05
2019-02-22T12:53:39.150Z,17.55
2019-02-22T12:56:09.668Z,15.32
2019-02-22T12:58:39.810Z,17.55
2019-02-22T13:01:10.565Z,15.93
2019-02-22T13:03:40.770Z,11.20
2019-02-22T13:06:10.934Z,13.28
2019-02-22T13:08:41.095Z,14.05
2019-02-22T13:11:11.235Z,16.23
2019-02-22T13:13:42.946Z,12.50
2019-02-22T13:16:13.091Z,15.32
2019-02-22T13:18:43.208Z,11.28
2019-02-22T13:21:13.342Z,10.43
2019-02-22T13:23:44.782Z,9.83
2019-02-22T13:26:14.871Z,14.33
2019-02-22T13:28:45.052Z,10.30
2019-02-22T13:31:15.240Z,10.50
2019-02-22T13:33:47.318Z,10.20
2019-02-22T13:36:17.483Z,11.05
2019-02-22T13:38:48.018Z,13.88
2019-02-22T13:41:18.342Z,10.38
2019-02-22T13:43:48.750Z,12.43
2019-02-22T13:46:18.929Z,9.68
2019-02-22T13:48:49.162Z,11.93
2019-02-22T13:51:19.417Z,12.75
2019-02-22T13:53:50.033Z,12.58
2019-02-22T13:56:29.235Z,11.25
2019-02-22T13:58:54.838Z,10.70
2019-02-22T14:01:26.476Z,12.88
2019-02-22T14:03:57.669Z,12.58
2019-02-22T14:06:27.985Z,11.97
2019-02-22T14:08:58.270Z,13.48
2019-02-22T14:11:28.642Z,18.67
2019-02-22T14:13:58.942Z,13.58
2019-02-22T14:16:29.892Z,13.20
2019-02-22T14:19:00.459Z,11.28
2019-02-22T14:21:31.102Z,14.53
2019-02-22T14:24:01.284Z,11.20
2019-02-22T14:26:31.485Z,14.55
2019-02-22T14:29:01.837Z,10.82
2019-02-22T14:31:32.421Z,15.95
2019-02-22T14:34:02.807Z,11.65
2019-02-22T14:36:33.096Z,14.18
2019-02-22T14:39:04.035Z,13.15
2019-02-22T14:41:34.386Z,14.80
2019-02-22T14:44:04.780Z,15.15
2019-02-22T14:46:36.030Z,13.38
2019-02-22T14:49:06.395Z,13.48
2019-02-22T14:51:36.968Z,11.03
2019-02-22T14:54:07.100Z,10.88
2019-02-22T14:56:37.363Z,10.08
2019-02-22T14:59:07.847Z,9.70
2019-02-22T15:01:37.984Z,10.38
2019-02-22T15:04:08.111Z,11.30
2019-02-22T15:06:40.298Z,9.30
2019-02-22T15:09:10.356Z,10.48
2019-02-22T15:11:40.684Z,10.03
2019-02-22T15:14:11.744Z,10.43
2019-02-22T15:16:58.261Z,8.00
2019-02-22T15:19:28.428Z,10.45
2019-02-22T15:22:01.005Z,9.50
2019-02-22T15:24:32.973Z,8.38
2019-02-22T15:27:02.682Z,9.80
2019-02-22T15:32:56.563Z,9.43
2019-02-22T15:35:27.765Z,14.47
2019-02-22T15:37:57.923Z,11.48
2019-02-22T15:40:29.233Z,9.15
2019-02-22T15:43:00.071Z,7.97
2019-02-22T15:45:33.762Z,11.25
2019-02-22T15:48:03.986Z,9.68
2019-02-22T15:50:34.520Z,9.50
2019-02-22T15:53:05.372Z,8.93
2019-02-22T15:55:36.890Z,8.18
2019-02-22T15:58:07.113Z,7.42
2019-02-22T16:00:37.398Z,8.98
2019-02-22T16:03:08.506Z,11.68
2019-02-22T16:05:43.260Z,7.85
2019-02-22T16:08:13.774Z,9.88
2019-02-22T16:10:44.088Z,9.35
2019-02-22T16:13:14.285Z,11.48
2019-02-22T16:15:46.059Z,15.48
2019-02-22T16:18:18.166Z,10.82
2019-02-22T16:20:49.488Z,13.75
2019-02-22T16:23:23.790Z,10.05
2019-02-22T16:25:54.982Z,10.38
2019-02-22T16:28:27.964Z,8.68
2019-02-22T16:30:58.697Z,9.75
2019-02-22T16:33:33.171Z,11.73
2019-02-22T16:36:09.680Z,11.00
2019-02-22T16:38:36.382Z,13.60
2019-02-22T16:41:11.588Z,17.05
2019-02-22T16:43:41.754Z,12.28
2019-02-22T16:46:11.974Z,10.45
2019-02-22T16:48:42.834Z,6.95
2019-02-22T16:51:15.244Z,8.63
2019-02-22T16:53:45.923Z,7.87
2019-02-22T16:56:16.071Z,6.00
2019-02-22T16:58:46.232Z,6.80
2019-02-22T17:01:17.275Z,8.78
2019-02-22T17:03:47.439Z,11.35
2019-02-22T17:06:18.005Z,9.30
2019-02-22T17:08:48.481Z,5.62
2019-02-22T17:11:18.630Z,7.80
2019-02-22T17:13:48.891Z,6.53
2019-02-22T17:16:22.956Z,7.60
2019-02-22T17:18:53.174Z,7.22
2019-02-22T17:21:24.834Z,5.97
2019-02-22T17:23:57.914Z,5.42
2019-02-22T17:26:30.399Z,8.40
2019-02-22T17:29:02.226Z,10.18
2019-02-22T17:31:36.417Z,8.75
2019-02-22T17:34:08.884Z,8.43
2019-02-22T17:36:51.798Z,4.65
2019-02-22T17:39:23.530Z,6.35
2019-02-22T17:41:54.130Z,5.20
2019-02-22T17:44:24.285Z,7.83
2019-02-22T17:46:57.876Z,5.92
2019-02-22T17:49:29.101Z,5.85
2019-02-22T17:51:59.586Z,7.33
2019-02-22T17:54:33.885Z,9.35
2019-02-22T17:57:06.033Z,9.68
2019-02-22T17:59:36.734Z,6.70
2019-02-22T18:02:08.321Z,5.70
2019-02-22T18:04:40.160Z,6.65
2019-02-22T18:07:11.090Z,5.65
2019-02-22T18:09:41.701Z,5.45
2019-02-22T18:12:11.860Z,8.08
2019-02-22T18:14:43.671Z,7.15
2019-02-22T18:17:15.299Z,5.10
2019-02-22T18:19:45.725Z,5.45
2019-02-22T18:22:25.393Z,4.37
2019-02-22T18:24:48.235Z,7.00
2019-02-22T18:27:18.835Z,4.35
2019-02-22T18:30:29.438Z,4.62
2019-02-22T18:33:02.082Z,4.92
2019-02-22T18:35:34.361Z,5.72
2019-02-22T18:38:04.778Z,6.12
2019-02-22T18:40:34.922Z,4.50
2019-02-22T18:43:05.127Z,6.12
2019-02-22T18:45:35.349Z,5.92
2019-02-22T18:48:06.647Z,4.60
2019-02-22T18:50:37.191Z,4.83
2019-02-22T18:53:07.754Z,7.92
2019-02-22T18:55:49.132Z,4.20
2019-02-22T18:58:12.075Z,6.05
2019-02-22T19:00:43.170Z,10.63
2019-02-22T19:03:13.830Z,6.55
2019-02-22T19:05:44.552Z,7.08
2019-02-22T19:08:15.582Z,9.18
2019-02-22T19:10:45.997Z,4.67
2019-02-22T19:13:18.339Z,8.28
2019-02-22T19:15:48.782Z,8.75
2019-02-22T19:18:22.533Z,6.00
2019-02-22T19:20:55.537Z,6.55
2019-02-22T19:23:28.167Z,8.15
2019-02-22T19:26:05.704Z,10.85
2019-02-22T19:28:37.629Z,7.35
2019-02-22T19:31:07.786Z,9.50
2019-02-22T19:33:38.842Z,13.58
2019-02-22T19:36:12.731Z,6.10
2019-02-22T19:38:47.923Z,8.80
2019-02-22T19:41:22.852Z,8.98
2019-02-22T19:43:54.517Z,9.73
2019-02-22T19:46:27.760Z,10.90
2019-02-22T19:48:58.021Z,8.95
2019-02-22T19:51:29.050Z,7.60
2019-02-22T19:54:28.299Z,8.35
2019-02-22T19:57:19.803Z,7.00
2019-02-22T19:59:51.077Z,6.95
2019-02-22T20:02:28.851Z,7.33
2019-02-22T20:05:00.779Z,6.65
2019-02-22T20:07:31.511Z,5.00
2019-02-22T20:10:05.349Z,5.55
2019-02-22T20:12:37.521Z,7.87
2019-02-22T20:15:10.960Z,4.95
2019-02-22T20:17:53.262Z,6.55
2019-02-22T20:20:17.674Z,8.18
2019-02-22T20:22:50.891Z,7.95
2019-02-22T20:25:25.271Z,11.85
2019-02-22T20:27:55.751Z,7.45
2019-02-22T20:30:28.844Z,8.23
2019-02-22T20:33:03.629Z,7.62
2019-02-22T20:35:36.551Z,8.78
2019-02-22T20:38:08.816Z,7.03
2019-02-22T20:40:40.120Z,5.97
2019-02-22T20:43:11.944Z,7.20
2019-02-22T20:45:43.443Z,6.15
2019-02-22T20:48:14.987Z,7.72
2019-02-22T20:50:45.779Z,11.18
2019-02-22T20:53:15.979Z,8.65
2019-02-22T20:55:47.193Z,9.63
2019-02-22T20:58:18.444Z,9.30
2019-02-22T21:00:51.537Z,9.35
2019-02-22T21:03:22.885Z,8.90
2019-02-22T21:05:53.894Z,7.00
2019-02-22T21:08:24.875Z,9.78
2019-02-22T21:10:56.345Z,8.03
2019-02-22T21:13:29.809Z,7.25
2019-02-22T21:16:05.096Z,5.83
2019-02-22T21:18:35.810Z,7.90
2019-02-22T21:21:06.474Z,8.40
2019-02-22T21:23:38.322Z,7.58
2019-02-22T21:26:11.417Z,8.83
2019-02-22T21:28:49.192Z,9.75
2019-02-22T21:31:20.924Z,10.63
2019-02-22T21:33:54.755Z,9.05
2019-02-22T21:36:30.784Z,7.80
2019-02-22T21:39:01.022Z,7.60
2019-02-22T21:41:31.227Z,8.10
2019-02-22T21:44:01.535Z,9.15
2019-02-22T21:46:33.756Z,17.57
2019-02-22T21:49:05.332Z,12.25
2019-02-22T21:51:47.631Z,8.70
2019-02-22T21:54:22.069Z,15.32
2019-02-22T21:56:52.562Z,9.00
2019-02-22T21:59:22.755Z,7.00
2019-02-22T22:02:00.785Z,10.18
2019-02-22T22:04:31.087Z,17.87
2019-02-22T22:07:02.012Z,11.08
2019-02-22T22:09:34.087Z,7.53
2019-02-22T22:12:05.601Z,6.95
2019-02-22T22:14:36.818Z,11.45
2019-02-22T22:17:06.905Z,7.30
2019-02-22T22:19:39.215Z,8.48
2019-02-22T22:22:10.919Z,8.48
2019-02-22T22:24:41.113Z,10.53
2019-02-22T22:27:13.659Z,13.48
2019-02-22T22:29:43.770Z,8.58
2019-02-22T22:32:14.053Z,8.65
2019-02-22T22:34:46.055Z,7.58
2019-02-22T22:37:18.109Z,13.75
2019-02-22T22:39:48.638Z,9.95
2019-02-22T22:42:22.691Z,11.65
2019-02-22T22:44:53.028Z,11.40
2019-02-22T22:47:27.132Z,12.07
2019-02-22T22:50:03.345Z,11.05
2019-02-22T22:52:33.720Z,15.00
2019-02-22T22:55:04.751Z,12.53
2019-02-22T22:57:36.852Z,13.32
2019-02-22T23:00:19.633Z,9.83
2019-02-22T23:02:51.723Z,11.28
2019-02-22T23:05:26.322Z,15.15
2019-02-22T23:07:56.594Z,11.65
2019-02-22T23:10:29.278Z,13.28
2019-02-22T23:13:00.876Z,17.30
2019-02-22T23:15:31.052Z,14.03
2019-02-22T23:18:07.903Z,14.03
2019-02-22T23:20:37.536Z,18.73
2019-02-22T23:23:07.803Z,18.57
2019-02-22T23:25:38.035Z,11.33
2019-02-22T23:28:11.933Z,19.52
2019-02-22T23:30:45.445Z,18.23
2019-02-22T23:33:18.080Z,25.15
2019-02-22T23:35:50.256Z,22.67
2019-02-22T23:38:24.278Z,24.10
2019-02-22T23:40:54.742Z,34.83
2019-02-22T23:43:30.174Z,23.90
2019-02-22T23:46:01.232Z,22.20
2019-02-22T23:48:33.382Z,27.13
2019-02-22T23:51:09.882Z,52.85
2019-02-22T23:53:41.161Z,35.98
2019-02-22T23:56:13.072Z,14.03
2019-02-22T23:58:45.942Z,13.85
